sensor_id;sensor_type;location;lat;lon;timestamp;P1;durP1;ratioP1;P2;durP2;ratioP2
47912;SDS011;33676;51.006;17.180;2023-02-12T00:01:33;26.30;;;20.20;;
47912;SDS011;33676;51.006;17.180;2023-02-12T00:04:02;24.20;;;19.90;;
47912;SDS011;33676;51.006;17.180;2023-02-12T00:06:30;29.00;;;21.60;;
47912;SDS011;33676;51.006;17.180;2023-02-12T00:08:59;25.60;;;16.00;;
47912;SDS011;33676;51.006;17.180;2023-02-12T00:11:28;27.90;;;21.90;;
47912;SDS011;33676;51.006;17.180;2023-02-12T00:13:57;28.30;;;20.60;;
47912;SDS011;33676;51.006;17.180;2023-02-12T00:16:27;27.00;;;20.60;;
47912;SDS011;33676;51.006;17.180;2023-02-12T00:18:57;25.80;;;20.80;;
47912;SDS011;33676;51.006;17.180;2023-02-12T00:21:26;25.60;;;21.50;;
47912;SDS011;33676;51.006;17.180;2023-02-12T00:23:55;26.20;;;19.20;;
47912;SDS011;33676;51.006;17.180;2023-02-12T00:26:24;31.10;;;19.80;;
47912;SDS011;33676;51.006;17.180;2023-02-12T00:28:53;23.90;;;20.60;;
47912;SDS011;33676;51.006;17.180;2023-02-12T00:31:24;26.60;;;21.10;;
47912;SDS011;33676;51.006;17.180;2023-02-12T00:33:57;29.20;;;20.10;;
47912;SDS011;33676;51.006;17.180;2023-02-12T00:36:28;26.50;;;19.60;;
47912;SDS011;33676;51.006;17.180;2023-02-12T00:38:58;29.20;;;20.30;;
47912;SDS011;33676;51.006;17.180;2023-02-12T00:41:27;25.10;;;19.20;;
47912;SDS011;33676;51.006;17.180;2023-02-12T00:43:56;28.20;;;20.10;;
47912;SDS011;33676;51.006;17.180;2023-02-12T00:46:25;25.50;;;20.20;;
47912;SDS011;33676;51.006;17.180;2023-02-12T00:48:53;28.30;;;21.40;;
47912;SDS011;33676;51.006;17.180;2023-02-12T00:51:21;28.20;;;19.90;;
47912;SDS011;33676;51.006;17.180;2023-02-12T00:53:50;27.60;;;19.60;;
47912;SDS011;33676;51.006;17.180;2023-02-12T00:56:18;29.60;;;21.30;;
47912;SDS011;33676;51.006;17.180;2023-02-12T00:58:47;28.20;;;20.20;;
47912;SDS011;33676;51.006;17.180;2023-02-12T01:01:15;25.50;;;19.50;;
47912;SDS011;33676;51.006;17.180;2023-02-12T01:03:44;29.30;;;19.10;;
47912;SDS011;33676;51.006;17.180;2023-02-12T01:06:12;30.40;;;19.60;;
47912;SDS011;33676;51.006;17.180;2023-02-12T01:08:40;25.40;;;19.00;;
47912;SDS011;33676;51.006;17.180;2023-02-12T01:11:11;32.20;;;20.30;;
47912;SDS011;33676;51.006;17.180;2023-02-12T01:13:40;25.40;;;19.50;;
47912;SDS011;33676;51.006;17.180;2023-02-12T01:16:20;29.80;;;19.90;;
47912;SDS011;33676;51.006;17.180;2023-02-12T01:18:52;26.40;;;20.20;;
47912;SDS011;33676;51.006;17.180;2023-02-12T01:21:25;22.30;;;18.70;;
47912;SDS011;33676;51.006;17.180;2023-02-12T01:23:56;27.50;;;19.60;;
47912;SDS011;33676;51.006;17.180;2023-02-12T01:26:26;25.10;;;18.90;;
47912;SDS011;33676;51.006;17.180;2023-02-12T01:28:58;24.00;;;17.80;;
47912;SDS011;33676;51.006;17.180;2023-02-12T01:31:30;28.90;;;19.40;;
47912;SDS011;33676;51.006;17.180;2023-02-12T01:34:01;21.70;;;18.10;;
47912;SDS011;33676;51.006;17.180;2023-02-12T01:36:31;22.20;;;18.50;;
47912;SDS011;33676;51.006;17.180;2023-02-12T01:38:59;27.90;;;19.70;;
47912;SDS011;33676;51.006;17.180;2023-02-12T01:41:35;28.70;;;19.30;;
47912;SDS011;33676;51.006;17.180;2023-02-12T01:44:18;24.40;;;17.70;;
47912;SDS011;33676;51.006;17.180;2023-02-12T01:47:03;33.80;;;19.30;;
47912;SDS011;33676;51.006;17.180;2023-02-12T01:49:35;36.40;;;21.00;;
47912;SDS011;33676;51.006;17.180;2023-02-12T01:52:19;32.20;;;21.40;;
47912;SDS011;33676;51.006;17.180;2023-02-12T01:54:55;29.10;;;19.10;;
47912;SDS011;33676;51.006;17.180;2023-02-12T01:57:27;25.70;;;18.40;;
47912;SDS011;33676;51.006;17.180;2023-02-12T02:00:01;26.30;;;18.90;;
47912;SDS011;33676;51.006;17.180;2023-02-12T02:02:34;24.10;;;17.90;;
47912;SDS011;33676;51.006;17.180;2023-02-12T02:05:06;27.70;;;19.10;;
47912;SDS011;33676;51.006;17.180;2023-02-12T02:07:35;25.70;;;20.60;;
47912;SDS011;33676;51.006;17.180;2023-02-12T02:10:03;29.50;;;20.40;;
47912;SDS011;33676;51.006;17.180;2023-02-12T02:12:32;32.00;;;19.10;;
47912;SDS011;33676;51.006;17.180;2023-02-12T02:15:20;25.90;;;18.60;;
47912;SDS011;33676;51.006;17.180;2023-02-12T02:17:50;25.40;;;18.00;;
47912;SDS011;33676;51.006;17.180;2023-02-12T02:32:40;26.10;;;17.60;;
47912;SDS011;33676;51.006;17.180;2023-02-12T02:35:19;26.50;;;18.80;;
47912;SDS011;33676;51.006;17.180;2023-02-12T02:37:56;23.30;;;17.60;;
47912;SDS011;33676;51.006;17.180;2023-02-12T02:40:45;25.60;;;18.80;;
47912;SDS011;33676;51.006;17.180;2023-02-12T02:43:25;25.10;;;18.50;;
47912;SDS011;33676;51.006;17.180;2023-02-12T02:46:06;34.50;;;18.70;;
47912;SDS011;33676;51.006;17.180;2023-02-12T02:48:42;24.30;;;17.30;;
47912;SDS011;33676;51.006;17.180;2023-02-12T02:51:18;28.60;;;18.30;;
47912;SDS011;33676;51.006;17.180;2023-02-12T02:54:00;30.70;;;16.60;;
47912;SDS011;33676;51.006;17.180;2023-02-12T02:56:38;26.00;;;16.40;;
47912;SDS011;33676;51.006;17.180;2023-02-12T02:59:13;27.70;;;16.90;;
47912;SDS011;33676;51.006;17.180;2023-02-12T03:01:51;29.60;;;18.70;;
47912;SDS011;33676;51.006;17.180;2023-02-12T03:04:36;26.30;;;16.80;;
47912;SDS011;33676;51.006;17.180;2023-02-12T03:07:20;33.40;;;17.30;;
47912;SDS011;33676;51.006;17.180;2023-02-12T03:10:21;26.60;;;17.50;;
47912;SDS011;33676;51.006;17.180;2023-02-12T03:13:02;23.60;;;16.50;;
47912;SDS011;33676;51.006;17.180;2023-02-12T03:15:39;23.60;;;16.70;;
47912;SDS011;33676;51.006;17.180;2023-02-12T03:18:20;19.20;;;14.80;;
47912;SDS011;33676;51.006;17.180;2023-02-12T03:21:08;18.70;;;15.80;;
47912;SDS011;33676;51.006;17.180;2023-02-12T03:23:50;18.90;;;12.10;;
47912;SDS011;33676;51.006;17.180;2023-02-12T03:26:39;21.10;;;15.50;;
47912;SDS011;33676;51.006;17.180;2023-02-12T03:29:13;28.20;;;15.70;;
47912;SDS011;33676;51.006;17.180;2023-02-12T03:31:57;22.40;;;16.30;;
47912;SDS011;33676;51.006;17.180;2023-02-12T03:34:40;27.50;;;16.50;;
47912;SDS011;33676;51.006;17.180;2023-02-12T03:37:36;21.00;;;16.30;;
47912;SDS011;33676;51.006;17.180;2023-02-12T03:40:36;20.10;;;12.40;;
47912;SDS011;33676;51.006;17.180;2023-02-12T03:46:00;18.60;;;11.30;;
47912;SDS011;33676;51.006;17.180;2023-02-12T03:51:37;21.80;;;12.20;;
47912;SDS011;33676;51.006;17.180;2023-02-12T03:54:08;18.00;;;12.40;;
47912;SDS011;33676;51.006;17.180;2023-02-12T03:56:43;20.00;;;12.50;;
47912;SDS011;33676;51.006;17.180;2023-02-12T03:59:20;18.50;;;13.20;;
47912;SDS011;33676;51.006;17.180;2023-02-12T04:01:53;26.40;;;15.90;;
47912;SDS011;33676;51.006;17.180;2023-02-12T04:04:24;24.00;;;14.10;;
47912;SDS011;33676;51.006;17.180;2023-02-12T04:06:54;25.90;;;14.20;;
47912;SDS011;33676;51.006;17.180;2023-02-12T04:09:24;23.00;;;13.80;;
47912;SDS011;33676;51.006;17.180;2023-02-12T04:15:05;25.90;;;12.80;;
47912;SDS011;33676;51.006;17.180;2023-02-12T04:21:11;18.80;;;11.40;;
47912;SDS011;33676;51.006;17.180;2023-02-12T04:29:39;29.90;;;13.30;;
47912;SDS011;33676;51.006;17.180;2023-02-12T04:32:23;24.10;;;14.50;;
47912;SDS011;33676;51.006;17.180;2023-02-12T04:35:14;20.80;;;14.40;;
47912;SDS011;33676;51.006;17.180;2023-02-12T04:37:50;28.30;;;13.50;;
47912;SDS011;33676;51.006;17.180;2023-02-12T04:40:22;24.40;;;15.80;;
47912;SDS011;33676;51.006;17.180;2023-02-12T04:42:51;30.40;;;15.70;;
47912;SDS011;33676;51.006;17.180;2023-02-12T04:45:23;22.60;;;12.00;;
47912;SDS011;33676;51.006;17.180;2023-02-12T04:47:55;23.30;;;13.00;;
47912;SDS011;33676;51.006;17.180;2023-02-12T04:50:24;16.50;;;11.20;;
47912;SDS011;33676;51.006;17.180;2023-02-12T04:52:53;18.20;;;11.90;;
47912;SDS011;33676;51.006;17.180;2023-02-12T04:55:22;20.00;;;12.30;;
47912;SDS011;33676;51.006;17.180;2023-02-12T04:57:50;20.50;;;14.00;;
47912;SDS011;33676;51.006;17.180;2023-02-12T05:00:19;20.80;;;13.30;;
47912;SDS011;33676;51.006;17.180;2023-02-12T05:02:48;18.80;;;10.30;;
47912;SDS011;33676;51.006;17.180;2023-02-12T05:05:17;16.70;;;11.20;;
47912;SDS011;33676;51.006;17.180;2023-02-12T05:07:45;15.40;;;9.90;;
47912;SDS011;33676;51.006;17.180;2023-02-12T05:10:14;20.70;;;11.00;;
47912;SDS011;33676;51.006;17.180;2023-02-12T05:12:42;20.30;;;12.20;;
47912;SDS011;33676;51.006;17.180;2023-02-12T05:15:10;21.30;;;11.80;;
47912;SDS011;33676;51.006;17.180;2023-02-12T05:17:39;22.80;;;12.70;;
47912;SDS011;33676;51.006;17.180;2023-02-12T05:20:07;19.20;;;11.00;;
47912;SDS011;33676;51.006;17.180;2023-02-12T05:22:40;22.70;;;13.10;;
47912;SDS011;33676;51.006;17.180;2023-02-12T05:25:09;25.80;;;13.20;;
47912;SDS011;33676;51.006;17.180;2023-02-12T05:27:38;30.10;;;13.70;;
47912;SDS011;33676;51.006;17.180;2023-02-12T05:30:07;28.50;;;12.70;;
47912;SDS011;33676;51.006;17.180;2023-02-12T05:32:36;17.30;;;11.00;;
47912;SDS011;33676;51.006;17.180;2023-02-12T05:35:05;20.60;;;12.70;;
47912;SDS011;33676;51.006;17.180;2023-02-12T05:37:35;26.40;;;14.30;;
47912;SDS011;33676;51.006;17.180;2023-02-12T05:40:04;20.60;;;11.60;;
47912;SDS011;33676;51.006;17.180;2023-02-12T05:42:33;25.60;;;13.80;;
47912;SDS011;33676;51.006;17.180;2023-02-12T05:45:02;23.50;;;12.90;;
47912;SDS011;33676;51.006;17.180;2023-02-12T05:47:30;22.30;;;13.60;;
47912;SDS011;33676;51.006;17.180;2023-02-12T05:49:59;22.60;;;12.90;;
47912;SDS011;33676;51.006;17.180;2023-02-12T05:52:28;26.00;;;11.60;;
47912;SDS011;33676;51.006;17.180;2023-02-12T05:54:56;27.60;;;13.40;;
47912;SDS011;33676;51.006;17.180;2023-02-12T05:57:24;27.50;;;14.80;;
47912;SDS011;33676;51.006;17.180;2023-02-12T05:59:53;25.70;;;13.20;;
47912;SDS011;33676;51.006;17.180;2023-02-12T06:02:21;27.70;;;13.50;;
47912;SDS011;33676;51.006;17.180;2023-02-12T06:04:50;22.00;;;13.80;;
47912;SDS011;33676;51.006;17.180;2023-02-12T06:07:18;23.00;;;12.20;;
47912;SDS011;33676;51.006;17.180;2023-02-12T06:09:46;25.60;;;13.20;;
47912;SDS011;33676;51.006;17.180;2023-02-12T06:12:15;25.60;;;13.30;;
47912;SDS011;33676;51.006;17.180;2023-02-12T06:14:43;19.10;;;10.90;;
47912;SDS011;33676;51.006;17.180;2023-02-12T06:17:12;21.10;;;12.40;;
47912;SDS011;33676;51.006;17.180;2023-02-12T06:19:40;23.00;;;12.00;;
47912;SDS011;33676;51.006;17.180;2023-02-12T06:22:09;24.70;;;14.10;;
47912;SDS011;33676;51.006;17.180;2023-02-12T06:24:37;32.80;;;12.80;;
47912;SDS011;33676;51.006;17.180;2023-02-12T06:27:05;24.10;;;12.50;;
47912;SDS011;33676;51.006;17.180;2023-02-12T06:29:33;23.20;;;11.70;;
47912;SDS011;33676;51.006;17.180;2023-02-12T06:32:02;21.40;;;11.80;;
47912;SDS011;33676;51.006;17.180;2023-02-12T06:34:31;18.80;;;11.80;;
47912;SDS011;33676;51.006;17.180;2023-02-12T06:36:59;24.10;;;11.20;;
47912;SDS011;33676;51.006;17.180;2023-02-12T06:39:27;22.80;;;12.50;;
47912;SDS011;33676;51.006;17.180;2023-02-12T06:41:56;21.10;;;13.10;;
47912;SDS011;33676;51.006;17.180;2023-02-12T06:44:24;29.20;;;12.90;;
47912;SDS011;33676;51.006;17.180;2023-02-12T06:46:52;20.10;;;11.20;;
47912;SDS011;33676;51.006;17.180;2023-02-12T06:49:21;27.00;;;13.70;;
47912;SDS011;33676;51.006;17.180;2023-02-12T06:51:49;20.30;;;11.20;;
47912;SDS011;33676;51.006;17.180;2023-02-12T06:54:17;29.20;;;13.90;;
47912;SDS011;33676;51.006;17.180;2023-02-12T06:56:46;20.10;;;12.60;;
47912;SDS011;33676;51.006;17.180;2023-02-12T06:59:15;24.40;;;14.40;;
47912;SDS011;33676;51.006;17.180;2023-02-12T07:01:44;25.40;;;13.90;;
47912;SDS011;33676;51.006;17.180;2023-02-12T07:04:12;24.20;;;12.60;;
47912;SDS011;33676;51.006;17.180;2023-02-12T07:06:41;24.30;;;15.40;;
47912;SDS011;33676;51.006;17.180;2023-02-12T07:09:15;29.40;;;16.60;;
47912;SDS011;33676;51.006;17.180;2023-02-12T07:11:44;25.50;;;16.20;;
47912;SDS011;33676;51.006;17.180;2023-02-12T07:14:17;19.30;;;13.80;;
47912;SDS011;33676;51.006;17.180;2023-02-12T07:16:46;25.10;;;13.50;;
47912;SDS011;33676;51.006;17.180;2023-02-12T07:19:16;28.60;;;14.60;;
47912;SDS011;33676;51.006;17.180;2023-02-12T07:21:46;38.20;;;18.80;;
47912;SDS011;33676;51.006;17.180;2023-02-12T07:24:15;61.30;;;36.80;;
47912;SDS011;33676;51.006;17.180;2023-02-12T07:26:52;71.30;;;47.30;;
47912;SDS011;33676;51.006;17.180;2023-02-12T07:29:21;88.40;;;60.80;;
47912;SDS011;33676;51.006;17.180;2023-02-12T07:31:50;84.30;;;52.50;;
47912;SDS011;33676;51.006;17.180;2023-02-12T07:34:21;62.30;;;36.00;;
47912;SDS011;33676;51.006;17.180;2023-02-12T07:36:50;45.60;;;25.20;;
47912;SDS011;33676;51.006;17.180;2023-02-12T07:39:18;28.00;;;17.30;;
47912;SDS011;33676;51.006;17.180;2023-02-12T07:41:49;23.30;;;14.20;;
47912;SDS011;33676;51.006;17.180;2023-02-12T07:44:19;22.70;;;12.80;;
47912;SDS011;33676;51.006;17.180;2023-02-12T07:46:49;21.70;;;12.50;;
47912;SDS011;33676;51.006;17.180;2023-02-12T07:49:20;23.20;;;12.20;;
47912;SDS011;33676;51.006;17.180;2023-02-12T07:51:49;30.10;;;14.20;;
47912;SDS011;33676;51.006;17.180;2023-02-12T07:54:20;24.80;;;13.40;;
47912;SDS011;33676;51.006;17.180;2023-02-12T07:56:48;18.70;;;13.70;;
47912;SDS011;33676;51.006;17.180;2023-02-12T07:59:18;26.80;;;11.90;;
47912;SDS011;33676;51.006;17.180;2023-02-12T08:01:52;20.50;;;13.90;;
47912;SDS011;33676;51.006;17.180;2023-02-12T08:04:24;27.10;;;13.10;;
47912;SDS011;33676;51.006;17.180;2023-02-12T08:06:56;26.70;;;15.20;;
47912;SDS011;33676;51.006;17.180;2023-02-12T08:09:34;23.10;;;13.70;;
47912;SDS011;33676;51.006;17.180;2023-02-12T08:12:02;25.70;;;13.20;;
47912;SDS011;33676;51.006;17.180;2023-02-12T08:14:40;25.40;;;14.50;;
47912;SDS011;33676;51.006;17.180;2023-02-12T08:17:09;30.20;;;16.20;;
47912;SDS011;33676;51.006;17.180;2023-02-12T08:19:38;27.10;;;14.80;;
47912;SDS011;33676;51.006;17.180;2023-02-12T08:22:06;25.70;;;15.00;;
47912;SDS011;33676;51.006;17.180;2023-02-12T08:24:35;18.30;;;12.90;;
47912;SDS011;33676;51.006;17.180;2023-02-12T08:27:03;26.00;;;14.80;;
47912;SDS011;33676;51.006;17.180;2023-02-12T08:29:32;23.80;;;12.30;;
47912;SDS011;33676;51.006;17.180;2023-02-12T08:32:02;27.30;;;14.30;;
47912;SDS011;33676;51.006;17.180;2023-02-12T08:34:32;22.00;;;12.40;;
47912;SDS011;33676;51.006;17.180;2023-02-12T08:37:04;23.30;;;13.40;;
47912;SDS011;33676;51.006;17.180;2023-02-12T08:39:33;35.50;;;19.20;;
47912;SDS011;33676;51.006;17.180;2023-02-12T08:42:02;27.20;;;14.40;;
47912;SDS011;33676;51.006;17.180;2023-02-12T08:44:32;19.60;;;13.50;;
47912;SDS011;33676;51.006;17.180;2023-02-12T08:47:00;24.90;;;15.80;;
47912;SDS011;33676;51.006;17.180;2023-02-12T08:49:29;19.40;;;11.80;;
47912;SDS011;33676;51.006;17.180;2023-02-12T08:51:58;25.20;;;13.00;;
47912;SDS011;33676;51.006;17.180;2023-02-12T08:54:29;24.60;;;14.40;;
47912;SDS011;33676;51.006;17.180;2023-02-12T08:57:00;19.50;;;14.70;;
47912;SDS011;33676;51.006;17.180;2023-02-12T08:59:30;22.20;;;13.40;;
47912;SDS011;33676;51.006;17.180;2023-02-12T09:01:59;23.50;;;13.80;;
47912;SDS011;33676;51.006;17.180;2023-02-12T09:04:28;29.90;;;17.20;;
47912;SDS011;33676;51.006;17.180;2023-02-12T09:06:57;24.60;;;16.40;;
47912;SDS011;33676;51.006;17.180;2023-02-12T09:09:25;30.70;;;19.70;;
47912;SDS011;33676;51.006;17.180;2023-02-12T09:11:54;25.80;;;16.00;;
47912;SDS011;33676;51.006;17.180;2023-02-12T09:14:23;30.50;;;16.50;;
47912;SDS011;33676;51.006;17.180;2023-02-12T09:16:52;26.70;;;14.00;;
47912;SDS011;33676;51.006;17.180;2023-02-12T09:19:21;25.60;;;13.40;;
47912;SDS011;33676;51.006;17.180;2023-02-12T09:21:54;25.50;;;15.10;;
47912;SDS011;33676;51.006;17.180;2023-02-12T09:24:25;25.30;;;13.40;;
47912;SDS011;33676;51.006;17.180;2023-02-12T09:26:55;25.10;;;12.50;;
47912;SDS011;33676;51.006;17.180;2023-02-12T09:29:23;28.40;;;13.80;;
47912;SDS011;33676;51.006;17.180;2023-02-12T09:31:52;23.20;;;12.40;;
47912;SDS011;33676;51.006;17.180;2023-02-12T09:34:21;20.60;;;12.50;;
47912;SDS011;33676;51.006;17.180;2023-02-12T09:36:49;23.30;;;12.90;;
47912;SDS011;33676;51.006;17.180;2023-02-12T09:39:18;27.20;;;13.80;;
47912;SDS011;33676;51.006;17.180;2023-02-12T09:44:46;19.40;;;10.70;;
47912;SDS011;33676;51.006;17.180;2023-02-12T09:47:22;31.70;;;12.80;;
47912;SDS011;33676;51.006;17.180;2023-02-12T09:50:28;28.50;;;12.60;;
47912;SDS011;33676;51.006;17.180;2023-02-12T09:53:09;22.80;;;12.70;;
47912;SDS011;33676;51.006;17.180;2023-02-12T09:55:41;25.00;;;12.20;;
47912;SDS011;33676;51.006;17.180;2023-02-12T10:04:48;16.80;;;10.10;;
47912;SDS011;33676;51.006;17.180;2023-02-12T10:10:38;16.90;;;10.00;;
47912;SDS011;33676;51.006;17.180;2023-02-12T10:22:34;31.20;;;17.00;;
47912;SDS011;33676;51.006;17.180;2023-02-12T10:25:49;19.00;;;12.30;;
47912;SDS011;33676;51.006;17.180;2023-02-12T10:28:32;21.00;;;12.10;;
47912;SDS011;33676;51.006;17.180;2023-02-12T10:34:23;20.70;;;12.60;;
47912;SDS011;33676;51.006;17.180;2023-02-12T10:36:57;21.60;;;11.30;;
47912;SDS011;33676;51.006;17.180;2023-02-12T10:45:15;25.00;;;14.20;;
47912;SDS011;33676;51.006;17.180;2023-02-12T10:47:46;20.70;;;12.20;;
47912;SDS011;33676;51.006;17.180;2023-02-12T10:50:35;22.10;;;11.00;;
47912;SDS011;33676;51.006;17.180;2023-02-12T10:53:04;16.00;;;11.10;;
47912;SDS011;33676;51.006;17.180;2023-02-12T10:55:34;18.70;;;11.00;;
47912;SDS011;33676;51.006;17.180;2023-02-12T10:58:23;18.80;;;11.20;;
47912;SDS011;33676;51.006;17.180;2023-02-12T11:00:59;22.20;;;10.60;;
47912;SDS011;33676;51.006;17.180;2023-02-12T11:03:31;26.30;;;11.50;;
47912;SDS011;33676;51.006;17.180;2023-02-12T11:06:16;16.70;;;9.70;;
47912;SDS011;33676;51.006;17.180;2023-02-12T11:08:47;18.30;;;10.70;;
47912;SDS011;33676;51.006;17.180;2023-02-12T11:11:20;21.60;;;11.80;;
47912;SDS011;33676;51.006;17.180;2023-02-12T11:14:02;17.00;;;10.20;;
47912;SDS011;33676;51.006;17.180;2023-02-12T11:16:40;33.40;;;12.60;;
47912;SDS011;33676;51.006;17.180;2023-02-12T11:19:26;19.00;;;10.20;;
47912;SDS011;33676;51.006;17.180;2023-02-12T11:22:09;17.50;;;8.70;;
47912;SDS011;33676;51.006;17.180;2023-02-12T11:24:41;17.30;;;9.80;;
47912;SDS011;33676;51.006;17.180;2023-02-12T11:30:19;20.00;;;11.50;;
47912;SDS011;33676;51.006;17.180;2023-02-12T11:32:49;21.00;;;9.90;;
47912;SDS011;33676;51.006;17.180;2023-02-12T11:35:21;25.00;;;11.00;;
47912;SDS011;33676;51.006;17.180;2023-02-12T11:37:54;20.20;;;10.60;;
47912;SDS011;33676;51.006;17.180;2023-02-12T11:40:28;18.50;;;9.40;;
47912;SDS011;33676;51.006;17.180;2023-02-12T11:43:01;20.80;;;11.70;;
47912;SDS011;33676;51.006;17.180;2023-02-12T11:45:41;16.30;;;10.60;;
47912;SDS011;33676;51.006;17.180;2023-02-12T11:48:29;12.10;;;7.50;;
47912;SDS011;33676;51.006;17.180;2023-02-12T11:51:04;14.80;;;8.80;;
47912;SDS011;33676;51.006;17.180;2023-02-12T11:53:42;14.90;;;8.10;;
47912;SDS011;33676;51.006;17.180;2023-02-12T11:56:16;14.80;;;7.60;;
47912;SDS011;33676;51.006;17.180;2023-02-12T11:58:46;15.80;;;7.40;;
47912;SDS011;33676;51.006;17.180;2023-02-12T12:01:20;17.90;;;8.60;;
47912;SDS011;33676;51.006;17.180;2023-02-12T12:04:07;13.80;;;8.90;;
47912;SDS011;33676;51.006;17.180;2023-02-12T12:07:01;15.30;;;7.20;;
47912;SDS011;33676;51.006;17.180;2023-02-12T12:09:46;12.60;;;7.90;;
47912;SDS011;33676;51.006;17.180;2023-02-12T12:12:40;13.60;;;7.60;;
47912;SDS011;33676;51.006;17.180;2023-02-12T12:15:29;9.50;;;8.20;;
47912;SDS011;33676;51.006;17.180;2023-02-12T12:18:32;13.80;;;7.90;;
47912;SDS011;33676;51.006;17.180;2023-02-12T12:21:31;17.50;;;7.50;;
47912;SDS011;33676;51.006;17.180;2023-02-12T12:24:21;12.60;;;7.90;;
47912;SDS011;33676;51.006;17.180;2023-02-12T12:27:18;14.80;;;7.20;;
47912;SDS011;33676;51.006;17.180;2023-02-12T12:33:05;13.90;;;7.30;;
47912;SDS011;33676;51.006;17.180;2023-02-12T12:35:46;12.00;;;6.90;;
47912;SDS011;33676;51.006;17.180;2023-02-12T12:38:46;15.10;;;6.40;;
47912;SDS011;33676;51.006;17.180;2023-02-12T12:44:53;13.00;;;6.10;;
47912;SDS011;33676;51.006;17.180;2023-02-12T12:47:29;7.70;;;5.30;;
47912;SDS011;33676;51.006;17.180;2023-02-12T12:53:14;12.20;;;9.60;;
47912;SDS011;33676;51.006;17.180;2023-02-12T13:10:39;14.90;;;8.40;;
47912;SDS011;33676;51.006;17.180;2023-02-12T13:13:23;7.80;;;5.80;;
47912;SDS011;33676;51.006;17.180;2023-02-12T13:22:10;17.60;;;7.30;;
47912;SDS011;33676;51.006;17.180;2023-02-12T13:25:25;15.90;;;6.70;;
47912;SDS011;33676;51.006;17.180;2023-02-12T13:27:59;15.50;;;6.60;;
47912;SDS011;33676;51.006;17.180;2023-02-12T13:30:38;10.20;;;5.60;;
47912;SDS011;33676;51.006;17.180;2023-02-12T13:33:32;11.60;;;5.90;;
47912;SDS011;33676;51.006;17.180;2023-02-12T13:36:12;11.90;;;5.60;;
47912;SDS011;33676;51.006;17.180;2023-02-12T13:38:54;9.50;;;6.00;;
47912;SDS011;33676;51.006;17.180;2023-02-12T13:41:26;9.00;;;6.00;;
47912;SDS011;33676;51.006;17.180;2023-02-12T13:44:02;11.30;;;5.60;;
47912;SDS011;33676;51.006;17.180;2023-02-12T13:49:38;13.90;;;7.40;;
47912;SDS011;33676;51.006;17.180;2023-02-12T13:52:30;12.70;;;7.60;;
47912;SDS011;33676;51.006;17.180;2023-02-12T13:55:38;8.40;;;6.00;;
47912;SDS011;33676;51.006;17.180;2023-02-12T14:07:01;17.90;;;9.00;;
47912;SDS011;33676;51.006;17.180;2023-02-12T14:18:11;13.60;;;8.00;;
47912;SDS011;33676;51.006;17.180;2023-02-12T14:23:39;13.90;;;7.70;;
47912;SDS011;33676;51.006;17.180;2023-02-12T14:26:14;33.30;;;14.80;;
47912;SDS011;33676;51.006;17.180;2023-02-12T14:29:02;21.20;;;12.70;;
47912;SDS011;33676;51.006;17.180;2023-02-12T14:31:35;11.40;;;7.60;;
47912;SDS011;33676;51.006;17.180;2023-02-12T14:45:25;12.40;;;6.40;;
47912;SDS011;33676;51.006;17.180;2023-02-12T14:47:58;11.80;;;5.60;;
47912;SDS011;33676;51.006;17.180;2023-02-12T14:50:35;13.20;;;4.40;;
47912;SDS011;33676;51.006;17.180;2023-02-12T14:53:30;12.20;;;5.50;;
47912;SDS011;33676;51.006;17.180;2023-02-12T14:56:02;8.90;;;6.20;;
47912;SDS011;33676;51.006;17.180;2023-02-12T14:58:32;11.40;;;5.60;;
47912;SDS011;33676;51.006;17.180;2023-02-12T15:01:04;14.20;;;4.60;;
47912;SDS011;33676;51.006;17.180;2023-02-12T15:03:54;10.90;;;4.50;;
47912;SDS011;33676;51.006;17.180;2023-02-12T15:06:37;11.40;;;4.40;;
47912;SDS011;33676;51.006;17.180;2023-02-12T15:09:29;6.30;;;4.40;;
47912;SDS011;33676;51.006;17.180;2023-02-12T15:15:14;9.70;;;7.00;;
47912;SDS011;33676;51.006;17.180;2023-02-12T15:17:54;13.90;;;7.60;;
47912;SDS011;33676;51.006;17.180;2023-02-12T15:20:44;14.30;;;6.70;;
47912;SDS011;33676;51.006;17.180;2023-02-12T15:23:41;9.50;;;4.70;;
47912;SDS011;33676;51.006;17.180;2023-02-12T15:26:17;9.70;;;4.60;;
47912;SDS011;33676;51.006;17.180;2023-02-12T15:28:54;10.80;;;5.00;;
47912;SDS011;33676;51.006;17.180;2023-02-12T15:31:27;6.20;;;4.50;;
47912;SDS011;33676;51.006;17.180;2023-02-12T15:34:01;9.80;;;5.20;;
47912;SDS011;33676;51.006;17.180;2023-02-12T15:36:35;13.60;;;6.50;;
47912;SDS011;33676;51.006;17.180;2023-02-12T15:39:07;13.20;;;6.50;;
47912;SDS011;33676;51.006;17.180;2023-02-12T15:41:38;12.90;;;6.80;;
47912;SDS011;33676;51.006;17.180;2023-02-12T15:44:23;40.10;;;21.00;;
47912;SDS011;33676;51.006;17.180;2023-02-12T15:47:10;14.80;;;8.10;;
47912;SDS011;33676;51.006;17.180;2023-02-12T15:49:44;11.30;;;6.80;;
47912;SDS011;33676;51.006;17.180;2023-02-12T15:52:23;23.30;;;8.70;;
47912;SDS011;33676;51.006;17.180;2023-02-12T15:55:03;15.30;;;9.90;;
47912;SDS011;33676;51.006;17.180;2023-02-12T15:57:33;15.20;;;8.80;;
47912;SDS011;33676;51.006;17.180;2023-02-12T16:00:06;33.00;;;13.80;;
47912;SDS011;33676;51.006;17.180;2023-02-12T16:02:42;52.40;;;28.80;;
47912;SDS011;33676;51.006;17.180;2023-02-12T16:05:10;46.80;;;28.80;;
47912;SDS011;33676;51.006;17.180;2023-02-12T16:07:42;34.00;;;19.50;;
47912;SDS011;33676;51.006;17.180;2023-02-12T16:10:18;28.80;;;13.90;;
47912;SDS011;33676;51.006;17.180;2023-02-12T16:12:49;22.70;;;11.70;;
47912;SDS011;33676;51.006;17.180;2023-02-12T16:15:30;15.30;;;11.30;;
47912;SDS011;33676;51.006;17.180;2023-02-12T16:18:04;16.90;;;8.10;;
47912;SDS011;33676;51.006;17.180;2023-02-12T16:20:34;19.00;;;11.50;;
47912;SDS011;33676;51.006;17.180;2023-02-12T16:23:07;20.00;;;14.70;;
47912;SDS011;33676;51.006;17.180;2023-02-12T16:25:38;17.70;;;11.00;;
47912;SDS011;33676;51.006;17.180;2023-02-12T16:28:27;28.00;;;16.40;;
47912;SDS011;33676;51.006;17.180;2023-02-12T16:31:11;26.10;;;14.30;;
47912;SDS011;33676;51.006;17.180;2023-02-12T16:33:46;21.80;;;12.50;;
47912;SDS011;33676;51.006;17.180;2023-02-12T16:38:52;31.60;;;17.50;;
47912;SDS011;33676;51.006;17.180;2023-02-12T16:41:27;23.10;;;14.70;;
47912;SDS011;33676;51.006;17.180;2023-02-12T16:46:29;17.60;;;12.40;;
47912;SDS011;33676;51.006;17.180;2023-02-12T16:49:21;22.10;;;13.60;;
47912;SDS011;33676;51.006;17.180;2023-02-12T16:52:16;22.50;;;12.40;;
47912;SDS011;33676;51.006;17.180;2023-02-12T16:54:59;17.10;;;11.30;;
47912;SDS011;33676;51.006;17.180;2023-02-12T16:57:27;20.80;;;12.00;;
47912;SDS011;33676;51.006;17.180;2023-02-12T16:59:56;22.70;;;14.30;;
47912;SDS011;33676;51.006;17.180;2023-02-12T17:02:25;20.80;;;13.60;;
47912;SDS011;33676;51.006;17.180;2023-02-12T17:04:53;26.10;;;14.50;;
47912;SDS011;33676;51.006;17.180;2023-02-12T17:07:24;27.60;;;15.90;;
47912;SDS011;33676;51.006;17.180;2023-02-12T17:09:57;25.70;;;16.10;;
47912;SDS011;33676;51.006;17.180;2023-02-12T17:12:29;36.50;;;18.90;;